sensor_id;sensor_type;location;lat;lon;timestamp;pressure;altitude;pressure_sealevel;temperature;humidity
68301;BME280;55146;47.468;18.806;2023-05-02T00:00:46;100043.53;;;14.56;43.61
68301;BME280;55146;47.468;18.806;2023-05-02T00:03:12;100051.97;;;14.65;43.45
68301;BME280;55146;47.468;18.806;2023-05-02T00:05:37;100042.97;;;14.73;43.50
68301;BME280;55146;47.468;18.806;2023-05-02T00:08:04;100043.53;;;14.89;42.91
68301;BME280;55146;47.468;18.806;2023-05-02T00:10:30;100042.09;;;14.91;43.26
68301;BME280;55146;47.468;18.806;2023-05-02T00:12:55;100041.47;;;14.94;43.08
68301;BME280;55146;47.468;18.806;2023-05-02T00:15:20;100040.16;;;14.92;43.32
68301;BME280;55146;47.468;18.806;2023-05-02T00:17:46;100038.94;;;14.98;42.88
68301;BME280;55146;47.468;18.806;2023-05-02T00:20:11;100037.81;;;15.13;42.65
68301;BME280;55146;47.468;18.806;2023-05-02T00:22:38;100044.37;;;15.03;43.25
68301;BME280;55146;47.468;18.806;2023-05-02T00:25:04;100036.06;;;15.03;42.67
68301;BME280;55146;47.468;18.806;2023-05-02T00:27:29;100040.59;;;15.13;42.69
68301;BME280;55146;47.468;18.806;2023-05-02T00:29:56;100035.38;;;15.11;43.15
68301;BME280;55146;47.468;18.806;2023-05-02T00:32:22;100042.25;;;15.14;42.58
68301;BME280;55146;47.468;18.806;2023-05-02T00:34:47;100037.13;;;15.21;43.42
68301;BME280;55146;47.468;18.806;2023-05-02T00:37:13;100035.59;;;15.28;42.68
68301;BME280;55146;47.468;18.806;2023-05-02T00:39:38;100037.41;;;15.19;42.89
68301;BME280;55146;47.468;18.806;2023-05-02T00:42:03;100028.69;;;15.26;42.85
68301;BME280;55146;47.468;18.806;2023-05-02T00:44:29;100034.47;;;15.29;42.54
68301;BME280;55146;47.468;18.806;2023-05-02T00:46:55;100033.94;;;15.27;42.57
68301;BME280;55146;47.468;18.806;2023-05-02T00:49:21;100036.41;;;15.29;42.44
68301;BME280;55146;47.468;18.806;2023-05-02T00:51:46;100045.03;;;15.27;41.95
68301;BME280;55146;47.468;18.806;2023-05-02T00:54:12;100040.41;;;15.23;42.11
68301;BME280;55146;47.468;18.806;2023-05-02T00:56:38;100037.53;;;15.14;42.66
68301;BME280;55146;47.468;18.806;2023-05-02T00:59:04;100047.47;;;15.15;42.55
68301;BME280;55146;47.468;18.806;2023-05-02T01:12:44;100040.50;;;15.04;43.28
68301;BME280;55146;47.468;18.806;2023-05-02T01:15:15;100040.78;;;15.03;43.28
68301;BME280;55146;47.468;18.806;2023-05-02T01:17:43;100035.66;;;14.96;43.55
68301;BME280;55146;47.468;18.806;2023-05-02T01:20:12;100030.50;;;14.89;43.69
68301;BME280;55146;47.468;18.806;2023-05-02T01:22:38;100029.19;;;14.87;44.03
68301;BME280;55146;47.468;18.806;2023-05-02T01:30:35;100033.78;;;14.91;43.77
68301;BME280;55146;47.468;18.806;2023-05-02T01:33:03;100029.09;;;14.92;43.87
68301;BME280;55146;47.468;18.806;2023-05-02T01:35:32;100025.88;;;14.85;44.01
68301;BME280;55146;47.468;18.806;2023-05-02T01:37:59;100025.78;;;14.90;43.75
68301;BME280;55146;47.468;18.806;2023-05-02T01:40:27;100021.25;;;14.94;43.71
68301;BME280;55146;47.468;18.806;2023-05-02T01:42:55;100031.56;;;14.93;44.09
68301;BME280;55146;47.468;18.806;2023-05-02T01:45:22;100030.59;;;14.84;44.10
68301;BME280;55146;47.468;18.806;2023-05-02T01:47:48;100029.03;;;14.78;44.70
68301;BME280;55146;47.468;18.806;2023-05-02T01:50:18;100018.78;;;14.79;44.66
68301;BME280;55146;47.468;18.806;2023-05-02T01:52:45;100018.75;;;14.65;45.15
68301;BME280;55146;47.468;18.806;2023-05-02T01:55:15;100023.25;;;14.61;45.38
68301;BME280;55146;47.468;18.806;2023-05-02T01:57:43;100014.94;;;14.61;45.58
68301;BME280;55146;47.468;18.806;2023-05-02T02:00:10;100021.59;;;14.60;45.94
68301;BME280;55146;47.468;18.806;2023-05-02T02:02:38;100019.66;;;14.61;45.76
68301;BME280;55146;47.468;18.806;2023-05-02T02:05:06;100016.16;;;14.55;45.84
68301;BME280;55146;47.468;18.806;2023-05-02T02:07:32;100013.59;;;14.58;45.80
68301;BME280;55146;47.468;18.806;2023-05-02T02:09:58;100008.06;;;14.58;45.82
68301;BME280;55146;47.468;18.806;2023-05-02T02:12:31;100011.34;;;14.61;46.13
68301;BME280;55146;47.468;18.806;2023-05-02T02:15:03;100007.09;;;14.68;46.96
68301;BME280;55146;47.468;18.806;2023-05-02T02:17:36;100000.53;;;14.78;47.02
68301;BME280;55146;47.468;18.806;2023-05-02T02:20:04;100005.78;;;14.79;47.18
68301;BME280;55146;47.468;18.806;2023-05-02T02:22:33;100004.22;;;14.73;47.42
68301;BME280;55146;47.468;18.806;2023-05-02T02:25:05;99998.97;;;14.72;47.09
68301;BME280;55146;47.468;18.806;2023-05-02T02:27:32;100000.06;;;14.57;47.64
68301;BME280;55146;47.468;18.806;2023-05-02T02:29:57;99997.22;;;14.62;47.71
68301;BME280;55146;47.468;18.806;2023-05-02T02:32:23;100003.78;;;14.66;47.89
68301;BME280;55146;47.468;18.806;2023-05-02T02:34:49;100001.94;;;14.62;48.19
68301;BME280;55146;47.468;18.806;2023-05-02T02:37:19;99996.69;;;14.60;48.61
68301;BME280;55146;47.468;18.806;2023-05-02T02:40:15;100006.03;;;14.64;48.91
68301;BME280;55146;47.468;18.806;2023-05-02T02:42:51;99999.06;;;14.67;49.14
68301;BME280;55146;47.468;18.806;2023-05-02T02:45:33;100003.28;;;14.78;50.18
68301;BME280;55146;47.468;18.806;2023-05-02T02:50:58;99998.78;;;14.68;50.50
68301;BME280;55146;47.468;18.806;2023-05-02T02:56:14;100003.25;;;14.64;50.67
68301;BME280;55146;47.468;18.806;2023-05-02T03:01:47;100008.50;;;14.66;50.77
68301;BME280;55146;47.468;18.806;2023-05-02T03:04:15;100006.22;;;14.54;50.96
68301;BME280;55146;47.468;18.806;2023-05-02T03:06:41;100008.69;;;14.55;51.11
68301;BME280;55146;47.468;18.806;2023-05-02T03:09:14;100009.28;;;14.52;51.42
68301;BME280;55146;47.468;18.806;2023-05-02T03:11:41;100013.16;;;14.51;51.65
68301;BME280;55146;47.468;18.806;2023-05-02T03:14:07;100012.28;;;14.56;51.77
68301;BME280;55146;47.468;18.806;2023-05-02T03:16:36;100019.66;;;14.61;51.93
68301;BME280;55146;47.468;18.806;2023-05-02T03:19:03;100015.25;;;14.60;52.44
68301;BME280;55146;47.468;18.806;2023-05-02T03:21:29;100027.34;;;14.64;52.80
68301;BME280;55146;47.468;18.806;2023-05-02T03:24:02;100021.59;;;14.60;53.39
68301;BME280;55146;47.468;18.806;2023-05-02T03:26:28;100023.03;;;14.57;53.67
68301;BME280;55146;47.468;18.806;2023-05-02T03:28:54;100024.38;;;14.60;53.06
68301;BME280;55146;47.468;18.806;2023-05-02T03:31:19;100022.97;;;14.63;52.56
68301;BME280;55146;47.468;18.806;2023-05-02T03:33:46;100020.09;;;14.68;52.52
68301;BME280;55146;47.468;18.806;2023-05-02T03:36:11;100028.06;;;14.69;52.52
68301;BME280;55146;47.468;18.806;2023-05-02T03:38:37;100021.75;;;14.69;52.52
68301;BME280;55146;47.468;18.806;2023-05-02T03:41:02;100023.34;;;14.56;53.89
68301;BME280;55146;47.468;18.806;2023-05-02T03:43:28;100021.38;;;14.56;53.40
68301;BME280;55146;47.468;18.806;2023-05-02T03:45:54;100029.47;;;14.53;53.35
68301;BME280;55146;47.468;18.806;2023-05-02T03:48:19;100032.16;;;14.58;53.16
68301;BME280;55146;47.468;18.806;2023-05-02T03:50:45;100037.19;;;14.56;53.61
68301;BME280;55146;47.468;18.806;2023-05-02T03:53:10;100026.13;;;14.56;53.17
68301;BME280;55146;47.468;18.806;2023-05-02T03:55:39;100031.13;;;14.54;53.02
68301;BME280;55146;47.468;18.806;2023-05-02T03:58:05;100026.78;;;14.48;53.53
68301;BME280;55146;47.468;18.806;2023-05-02T04:00:31;100038.91;;;14.52;53.69
68301;BME280;55146;47.468;18.806;2023-05-02T04:02:56;100032.88;;;14.50;54.02
68301;BME280;55146;47.468;18.806;2023-05-02T04:05:22;100035.09;;;14.48;53.95
68301;BME280;55146;47.468;18.806;2023-05-02T04:07:47;100044.44;;;14.52;54.01
68301;BME280;55146;47.468;18.806;2023-05-02T04:10:12;100036.97;;;14.52;54.82
68301;BME280;55146;47.468;18.806;2023-05-02T04:12:41;100035.41;;;14.46;54.61
68301;BME280;55146;47.468;18.806;2023-05-02T04:15:08;100042.50;;;14.52;54.56
68301;BME280;55146;47.468;18.806;2023-05-02T04:17:34;100040.47;;;14.58;54.65
68301;BME280;55146;47.468;18.806;2023-05-02T04:19:59;100046.28;;;14.56;54.71
68301;BME280;55146;47.468;18.806;2023-05-02T04:22:24;100045.50;;;14.56;54.88
68301;BME280;55146;47.468;18.806;2023-05-02T04:24:49;100044.06;;;14.58;55.00
68301;BME280;55146;47.468;18.806;2023-05-02T04:27:15;100047.56;;;14.64;54.86
68301;BME280;55146;47.468;18.806;2023-05-02T04:29:40;100054.22;;;14.63;54.80
68301;BME280;55146;47.468;18.806;2023-05-02T04:32:06;100048.09;;;14.66;54.28
68301;BME280;55146;47.468;18.806;2023-05-02T04:34:31;100042.47;;;14.71;54.39
68301;BME280;55146;47.468;18.806;2023-05-02T04:36:56;100045.13;;;14.76;54.60
68301;BME280;55146;47.468;18.806;2023-05-02T04:39:22;100044.31;;;14.76;54.72
68301;BME280;55146;47.468;18.806;2023-05-02T04:41:47;100057.06;;;14.90;54.05
68301;BME280;55146;47.468;18.806;2023-05-02T04:44:13;100051.84;;;14.89;54.80
68301;BME280;55146;47.468;18.806;2023-05-02T04:46:38;100057.37;;;14.89;54.36
68301;BME280;55146;47.468;18.806;2023-05-02T04:49:03;100058.09;;;14.94;54.15
68301;BME280;55146;47.468;18.806;2023-05-02T04:51:29;100059.84;;;14.90;54.52
68301;BME280;55146;47.468;18.806;2023-05-02T04:53:54;100061.09;;;14.98;54.18
68301;BME280;55146;47.468;18.806;2023-05-02T04:56:20;100068.28;;;14.99;54.24
68301;BME280;55146;47.468;18.806;2023-05-02T04:58:46;100077.00;;;15.06;54.13
68301;BME280;55146;47.468;18.806;2023-05-02T05:01:11;100063.38;;;15.10;53.83
68301;BME280;55146;47.468;18.806;2023-05-02T05:03:36;100073.00;;;15.12;54.06
68301;BME280;55146;47.468;18.806;2023-05-02T05:06:02;100074.66;;;15.13;53.51
68301;BME280;55146;47.468;18.806;2023-05-02T05:08:27;100066.88;;;15.15;53.87
68301;BME280;55146;47.468;18.806;2023-05-02T05:10:52;100071.28;;;15.16;53.73
68301;BME280;55146;47.468;18.806;2023-05-02T05:13:18;100067.31;;;15.22;53.78
68301;BME280;55146;47.468;18.806;2023-05-02T05:15:43;100078.00;;;15.29;53.62
68301;BME280;55146;47.468;18.806;2023-05-02T05:18:08;100074.59;;;15.32;53.79
68301;BME280;55146;47.468;18.806;2023-05-02T05:20:34;100080.03;;;15.37;53.90
68301;BME280;55146;47.468;18.806;2023-05-02T05:22:59;100075.84;;;15.39;53.97
68301;BME280;55146;47.468;18.806;2023-05-02T05:25:25;100080.34;;;15.49;53.33
68301;BME280;55146;47.468;18.806;2023-05-02T05:27:51;100083.56;;;15.56;53.62
68301;BME280;55146;47.468;18.806;2023-05-02T05:30:17;100084.41;;;15.57;53.50
68301;BME280;55146;47.468;18.806;2023-05-02T05:32:42;100094.37;;;15.71;53.23
68301;BME280;55146;47.468;18.806;2023-05-02T05:35:08;100098.37;;;15.79;53.21
68301;BME280;55146;47.468;18.806;2023-05-02T05:37:34;100097.75;;;15.82;53.39
68301;BME280;55146;47.468;18.806;2023-05-02T05:40:01;100097.56;;;15.92;53.22
68301;BME280;55146;47.468;18.806;2023-05-02T05:42:27;100098.75;;;16.00;53.05
68301;BME280;55146;47.468;18.806;2023-05-02T05:44:52;100103.88;;;16.06;53.11
68301;BME280;55146;47.468;18.806;2023-05-02T05:47:19;100103.47;;;16.13;52.93
68301;BME280;55146;47.468;18.806;2023-05-02T05:49:46;100094.81;;;16.28;52.17
68301;BME280;55146;47.468;18.806;2023-05-02T05:52:12;100092.88;;;16.29;52.03
68301;BME280;55146;47.468;18.806;2023-05-02T05:54:38;100103.03;;;16.33;52.22
68301;BME280;55146;47.468;18.806;2023-05-02T05:57:03;100110.00;;;16.31;51.93
68301;BME280;55146;47.468;18.806;2023-05-02T05:59:28;100100.44;;;16.37;51.31
68301;BME280;55146;47.468;18.806;2023-05-02T06:01:54;100106.50;;;16.39;52.30
68301;BME280;55146;47.468;18.806;2023-05-02T06:04:19;100102.34;;;16.64;50.31
68301;BME280;55146;47.468;18.806;2023-05-02T06:06:44;100109.03;;;16.63;50.30
68301;BME280;55146;47.468;18.806;2023-05-02T06:09:10;100110.75;;;16.72;50.01
68301;BME280;55146;47.468;18.806;2023-05-02T06:11:36;100114.53;;;16.98;50.21
68301;BME280;55146;47.468;18.806;2023-05-02T06:14:02;100114.00;;;17.19;49.97
68301;BME280;55146;47.468;18.806;2023-05-02T06:16:27;100113.69;;;17.20;49.09
68301;BME280;55146;47.468;18.806;2023-05-02T06:18:53;100112.38;;;17.49;49.42
68301;BME280;55146;47.468;18.806;2023-05-02T06:21:18;100114.78;;;17.64;47.93
68301;BME280;55146;47.468;18.806;2023-05-02T06:23:43;100112.84;;;17.73;48.19
68301;BME280;55146;47.468;18.806;2023-05-02T06:26:10;100120.00;;;17.65;47.35
68301;BME280;55146;47.468;18.806;2023-05-02T06:28:35;100117.94;;;17.79;47.10
68301;BME280;55146;47.468;18.806;2023-05-02T06:31:03;100115.88;;;18.02;47.61
68301;BME280;55146;47.468;18.806;2023-05-02T06:33:29;100121.44;;;17.94;46.63
68301;BME280;55146;47.468;18.806;2023-05-02T06:35:55;100118.13;;;17.92;46.09
68301;BME280;55146;47.468;18.806;2023-05-02T06:38:21;100126.06;;;18.15;46.05
68301;BME280;55146;47.468;18.806;2023-05-02T06:40:47;100118.44;;;18.64;45.90
68301;BME280;55146;47.468;18.806;2023-05-02T06:43:13;100124.38;;;18.63;45.62
68301;BME280;55146;47.468;18.806;2023-05-02T06:45:39;100120.25;;;18.77;45.89
68301;BME280;55146;47.468;18.806;2023-05-02T06:48:05;100121.25;;;18.81;45.83
68301;BME280;55146;47.468;18.806;2023-05-02T06:50:30;100124.00;;;19.07;44.58
68301;BME280;55146;47.468;18.806;2023-05-02T06:52:56;100128.13;;;19.01;44.28
68301;BME280;55146;47.468;18.806;2023-05-02T06:55:21;100127.28;;;19.09;45.12
68301;BME280;55146;47.468;18.806;2023-05-02T06:57:50;100126.53;;;19.64;44.63
68301;BME280;55146;47.468;18.806;2023-05-02T07:00:16;100126.19;;;19.65;43.87
68301;BME280;55146;47.468;18.806;2023-05-02T07:02:44;100125.16;;;19.78;44.13
68301;BME280;55146;47.468;18.806;2023-05-02T07:05:10;100129.47;;;19.67;43.65
68301;BME280;55146;47.468;18.806;2023-05-02T07:07:36;100129.47;;;19.67;44.45
68301;BME280;55146;47.468;18.806;2023-05-02T07:10:02;100129.94;;;19.69;43.65
68301;BME280;55146;47.468;18.806;2023-05-02T07:12:27;100126.53;;;19.64;43.86
68301;BME280;55146;47.468;18.806;2023-05-02T07:14:53;100133.62;;;19.53;43.56
68301;BME280;55146;47.468;18.806;2023-05-02T07:17:18;100133.78;;;19.56;45.21
68301;BME280;55146;47.468;18.806;2023-05-02T07:22:27;100123.56;;;20.36;41.96
68301;BME280;55146;47.468;18.806;2023-05-02T07:25:02;100128.87;;;20.50;42.90
68301;BME280;55146;47.468;18.806;2023-05-02T07:27:28;100124.06;;;20.59;42.97
68301;BME280;55146;47.468;18.806;2023-05-02T07:29:53;100128.81;;;20.58;43.33
68301;BME280;55146;47.468;18.806;2023-05-02T07:32:19;100117.66;;;20.79;44.23
68301;BME280;55146;47.468;18.806;2023-05-02T07:34:50;100119.97;;;21.31;40.86
68301;BME280;55146;47.468;18.806;2023-05-02T07:37:18;100123.53;;;20.98;42.54
68301;BME280;55146;47.468;18.806;2023-05-02T07:39:44;100129.13;;;20.98;41.27
68301;BME280;55146;47.468;18.806;2023-05-02T07:42:09;100135.59;;;20.78;42.32
68301;BME280;55146;47.468;18.806;2023-05-02T07:44:34;100129.56;;;20.47;42.85
68301;BME280;55146;47.468;18.806;2023-05-02T07:47:01;100124.31;;;20.45;43.09
68301;BME280;55146;47.468;18.806;2023-05-02T07:49:26;100129.09;;;20.45;42.68
68301;BME280;55146;47.468;18.806;2023-05-02T07:51:51;100130.88;;;20.91;42.77
68301;BME280;55146;47.468;18.806;2023-05-02T07:54:18;100128.59;;;21.26;41.56
68301;BME280;55146;47.468;18.806;2023-05-02T07:56:43;100136.28;;;21.08;41.07
68301;BME280;55146;47.468;18.806;2023-05-02T07:59:09;100134.31;;;21.09;41.57
68301;BME280;55146;47.468;18.806;2023-05-02T08:01:34;100141.84;;;20.96;41.60
68301;BME280;55146;47.468;18.806;2023-05-02T08:04:00;100135.03;;;21.38;43.21
68301;BME280;55146;47.468;18.806;2023-05-02T08:06:26;100133.34;;;21.70;41.52
68301;BME280;55146;47.468;18.806;2023-05-02T08:08:52;100129.66;;;21.91;38.90
68301;BME280;55146;47.468;18.806;2023-05-02T08:11:18;100129.69;;;22.15;38.35
68301;BME280;55146;47.468;18.806;2023-05-02T08:13:44;100126.06;;;22.02;38.78
68301;BME280;55146;47.468;18.806;2023-05-02T08:16:09;100131.19;;;21.43;39.81
68301;BME280;55146;47.468;18.806;2023-05-02T08:18:35;100126.56;;;20.93;41.77
68301;BME280;55146;47.468;18.806;2023-05-02T08:21:00;100127.94;;;21.41;41.57
68301;BME280;55146;47.468;18.806;2023-05-02T08:23:26;100134.75;;;21.64;40.01
68301;BME280;55146;47.468;18.806;2023-05-02T08:25:52;100130.56;;;21.95;38.80
68301;BME280;55146;47.468;18.806;2023-05-02T08:28:18;100129.69;;;22.03;39.38
68301;BME280;55146;47.468;18.806;2023-05-02T08:30:43;100135.59;;;21.89;39.53
68301;BME280;55146;47.468;18.806;2023-05-02T08:33:09;100133.16;;;22.00;40.08
68301;BME280;55146;47.468;18.806;2023-05-02T08:35:35;100136.69;;;22.09;40.08
68301;BME280;55146;47.468;18.806;2023-05-02T08:38:00;100133.50;;;22.23;39.44
68301;BME280;55146;47.468;18.806;2023-05-02T08:40:26;100122.34;;;22.63;38.76
68301;BME280;55146;47.468;18.806;2023-05-02T08:42:51;100120.03;;;22.65;38.32
68301;BME280;55146;47.468;18.806;2023-05-02T08:45:18;100119.25;;;22.92;37.96
68301;BME280;55146;47.468;18.806;2023-05-02T08:47:44;100125.50;;;22.61;38.62
68301;BME280;55146;47.468;18.806;2023-05-02T08:50:11;100121.63;;;22.66;37.87
68301;BME280;55146;47.468;18.806;2023-05-02T08:52:37;100118.56;;;22.95;38.35
68301;BME280;55146;47.468;18.806;2023-05-02T08:55:05;100113.56;;;22.88;37.86
68301;BME280;55146;47.468;18.806;2023-05-02T08:57:31;100108.56;;;22.70;39.66
68301;BME280;55146;47.468;18.806;2023-05-02T08:59:57;100112.66;;;23.28;37.50
68301;BME280;55146;47.468;18.806;2023-05-02T09:04:58;100120.38;;;23.03;37.35
68301;BME280;55146;47.468;18.806;2023-05-02T09:07:25;100118.03;;;23.05;36.26
68301;BME280;55146;47.468;18.806;2023-05-02T09:09:52;100108.72;;;22.49;37.95
68301;BME280;55146;47.468;18.806;2023-05-02T09:12:23;100100.81;;;22.39;37.81
68301;BME280;55146;47.468;18.806;2023-05-02T09:15:08;100110.50;;;22.29;39.67
68301;BME280;55146;47.468;18.806;2023-05-02T09:17:44;100101.44;;;22.72;38.36
68301;BME280;55146;47.468;18.806;2023-05-02T09:20:11;100095.00;;;23.27;37.35
68301;BME280;55146;47.468;18.806;2023-05-02T09:22:37;100101.31;;;23.52;36.90
68301;BME280;55146;47.468;18.806;2023-05-02T09:25:05;100099.84;;;23.90;36.74
68301;BME280;55146;47.468;18.806;2023-05-02T09:27:54;100095.28;;;24.32;36.36
68301;BME280;55146;47.468;18.806;2023-05-02T09:30:23;100101.25;;;24.46;37.04
68301;BME280;55146;47.468;18.806;2023-05-02T09:32:50;100098.00;;;24.64;35.31
68301;BME280;55146;47.468;18.806;2023-05-02T09:35:17;100111.63;;;24.27;35.41
68301;BME280;55146;47.468;18.806;2023-05-02T09:37:55;100103.59;;;24.25;35.24
68301;BME280;55146;47.468;18.806;2023-05-02T09:40:20;100106.28;;;24.22;34.95
68301;BME280;55146;47.468;18.806;2023-05-02T09:42:47;100086.53;;;24.02;36.24
68301;BME280;55146;47.468;18.806;2023-05-02T09:45:23;100101.31;;;23.99;35.74
68301;BME280;55146;47.468;18.806;2023-05-02T09:47:49;100094.97;;;23.71;35.37
68301;BME280;55146;47.468;18.806;2023-05-02T09:50:36;100095.72;;;23.68;34.87
68301;BME280;55146;47.468;18.806;2023-05-02T09:53:06;100097.16;;;23.62;36.18
68301;BME280;55146;47.468;18.806;2023-05-02T09:55:32;100100.69;;;23.59;37.07
68301;BME280;55146;47.468;18.806;2023-05-02T09:57:58;100088.03;;;24.15;36.43
68301;BME280;55146;47.468;18.806;2023-05-02T10:00:43;100094.22;;;24.37;34.37
68301;BME280;55146;47.468;18.806;2023-05-02T10:03:09;100097.97;;;24.25;34.54
68301;BME280;55146;47.468;18.806;2023-05-02T10:05:36;100091.81;;;23.88;36.00
68301;BME280;55146;47.468;18.806;2023-05-02T10:08:04;100086.81;;;24.13;34.53
68301;BME280;55146;47.468;18.806;2023-05-02T10:10:32;100089.59;;;24.29;34.70
68301;BME280;55146;47.468;18.806;2023-05-02T10:13:00;100085.78;;;24.37;34.91
68301;BME280;55146;47.468;18.806;2023-05-02T10:15:29;100098.84;;;24.13;34.14
68301;BME280;55146;47.468;18.806;2023-05-02T10:17:57;100099.25;;;24.47;33.85
68301;BME280;55146;47.468;18.806;2023-05-02T10:20:33;100086.53;;;24.53;33.74
68301;BME280;55146;47.468;18.806;2023-05-02T10:22:59;100083.78;;;24.76;34.06
68301;BME280;55146;47.468;18.806;2023-05-02T10:25:27;100084.06;;;24.51;34.92
68301;BME280;55146;47.468;18.806;2023-05-02T10:27:55;100081.53;;;24.62;34.29
68301;BME280;55146;47.468;18.806;2023-05-02T10:30:21;100088.84;;;24.86;34.36
68301;BME280;55146;47.468;18.806;2023-05-02T10:32:48;100085.66;;;24.87;34.70
68301;BME280;55146;47.468;18.806;2023-05-02T10:35:16;100086.28;;;24.96;33.85
68301;BME280;55146;47.468;18.806;2023-05-02T10:37:42;100093.03;;;24.57;34.17
68301;BME280;55146;47.468;18.806;2023-05-02T10:40:10;100091.34;;;24.72;33.63
68301;BME280;55146;47.468;18.806;2023-05-02T10:42:38;100085.22;;;24.66;34.42
68301;BME280;55146;47.468;18.806;2023-05-02T10:45:12;100088.25;;;24.77;34.16
68301;BME280;55146;47.468;18.806;2023-05-02T10:48:12;100083.81;;;25.14;33.98
68301;BME280;55146;47.468;18.806;2023-05-02T10:50:44;100082.03;;;25.06;33.67
68301;BME280;55146;47.468;18.806;2023-05-02T10:53:42;100074.34;;;25.45;33.63
68301;BME280;55146;47.468;18.806;2023-05-02T10:56:20;100081.19;;;25.25;33.41
68301;BME280;55146;47.468;18.806;2023-05-02T10:58:50;100079.88;;;25.19;33.11
68301;BME280;55146;47.468;18.806;2023-05-02T11:04:06;100070.81;;;24.17;35.10
68301;BME280;55146;47.468;18.806;2023-05-02T11:06:37;100083.47;;;23.60;36.21
68301;BME280;55146;47.468;18.806;2023-05-02T11:11:47;100076.94;;;23.88;36.07
68301;BME280;55146;47.468;18.806;2023-05-02T11:19:26;100064.13;;;24.06;36.47
68301;BME280;55146;47.468;18.806;2023-05-02T11:21:52;100063.56;;;24.51;36.57
68301;BME280;55146;47.468;18.806;2023-05-02T11:24:39;100061.47;;;25.02;35.02
68301;BME280;55146;47.468;18.806;2023-05-02T11:29:57;100061.25;;;25.33;32.89
68301;BME280;55146;47.468;18.806;2023-05-02T11:32:24;100055.91;;;25.70;34.21
68301;BME280;55146;47.468;18.806;2023-05-02T11:35:23;100063.28;;;25.78;34.10
68301;BME280;55146;47.468;18.806;2023-05-02T11:37:53;100050.06;;;26.09;35.70
68301;BME280;55146;47.468;18.806;2023-05-02T11:40:19;100056.31;;;26.22;32.95
68301;BME280;55146;47.468;18.806;2023-05-02T11:42:45;100047.28;;;25.86;33.07
68301;BME280;55146;47.468;18.806;2023-05-02T11:45:11;100052.75;;;25.53;34.88
68301;BME280;55146;47.468;18.806;2023-05-02T11:47:36;100057.09;;;25.69;38.20
68301;BME280;55146;47.468;18.806;2023-05-02T11:50:05;100042.91;;;25.89;34.44
68301;BME280;55146;47.468;18.806;2023-05-02T11:52:39;100046.94;;;25.65;32.89
68301;BME280;55146;47.468;18.806;2023-05-02T11:55:06;100053.38;;;25.43;35.18
68301;BME280;55146;47.468;18.806;2023-05-02T11:57:33;100038.69;;;26.02;34.86
68301;BME280;55146;47.468;18.806;2023-05-02T11:59:58;100046.59;;;26.45;32.40
68301;BME280;55146;47.468;18.806;2023-05-02T12:02:44;100050.37;;;26.27;32.26
68301;BME280;55146;47.468;18.806;2023-05-02T12:05:11;100037.06;;;26.27;30.35
68301;BME280;55146;47.468;18.806;2023-05-02T12:07:37;100043.16;;;26.29;30.25
68301;BME280;55146;47.468;18.806;2023-05-02T12:10:04;100038.78;;;26.09;30.43
68301;BME280;55146;47.468;18.806;2023-05-02T12:12:30;100035.16;;;26.08;30.51
68301;BME280;55146;47.468;18.806;2023-05-02T12:14:56;100033.63;;;25.88;30.47
68301;BME280;55146;47.468;18.806;2023-05-02T12:17:22;100036.16;;;25.70;29.70
68301;BME280;55146;47.468;18.806;2023-05-02T12:19:48;100037.78;;;25.49;30.42
68301;BME280;55146;47.468;18.806;2023-05-02T12:22:14;100035.22;;;25.40;29.70
68301;BME280;55146;47.468;18.806;2023-05-02T12:24:41;100024.91;;;25.48;30.32
68301;BME280;55146;47.468;18.806;2023-05-02T12:27:13;100028.75;;;25.85;29.69
68301;BME280;55146;47.468;18.806;2023-05-02T12:29:40;100023.97;;;25.63;29.34
68301;BME280;55146;47.468;18.806;2023-05-02T12:34:51;100029.34;;;25.71;30.18
68301;BME280;55146;47.468;18.806;2023-05-02T12:37:21;100027.19;;;25.61;29.83
68301;BME280;55146;47.468;18.806;2023-05-02T12:39:48;100032.53;;;25.47;30.95
68301;BME280;55146;47.468;18.806;2023-05-02T12:42:15;100026.59;;;25.29;30.35
68301;BME280;55146;47.468;18.806;2023-05-02T12:44:45;100029.84;;;24.89;30.51
68301;BME280;55146;47.468;18.806;2023-05-02T12:47:15;100032.47;;;24.63;31.86
68301;BME280;55146;47.468;18.806;2023-05-02T12:49:51;100028.13;;;24.66;32.35
68301;BME280;55146;47.468;18.806;2023-05-02T12:52:17;100028.78;;;24.59;31.67
68301;BME280;55146;47.468;18.806;2023-05-02T12:54:43;100018.72;;;24.58;31.93
68301;BME280;55146;47.468;18.806;2023-05-02T12:57:10;100016.66;;;24.36;32.53
68301;BME280;55146;47.468;18.806;2023-05-02T12:59:45;100029.09;;;24.54;33.11
68301;BME280;55146;47.468;18.806;2023-05-02T13:02:11;100031.09;;;24.53;32.87
68301;BME280;55146;47.468;18.806;2023-05-02T13:04:37;100022.34;;;24.39;33.66
68301;BME280;55146;47.468;18.806;2023-05-02T13:07:04;100030.25;;;23.99;33.99
68301;BME280;55146;47.468;18.806;2023-05-02T13:09:29;100030.53;;;23.94;34.76
68301;BME280;55146;47.468;18.806;2023-05-02T13:11:55;100033.59;;;23.89;34.93
68301;BME280;55146;47.468;18.806;2023-05-02T13:14:21;100020.84;;;23.75;34.79
68301;BME280;55146;47.468;18.806;2023-05-02T13:16:48;100025.31;;;23.61;34.38
68301;BME280;55146;47.468;18.806;2023-05-02T13:19:13;100014.00;;;23.57;34.80
68301;BME280;55146;47.468;18.806;2023-05-02T13:21:39;100014.16;;;23.49;35.43
68301;BME280;55146;47.468;18.806;2023-05-02T13:24:05;100013.00;;;23.50;34.38
68301;BME280;55146;47.468;18.806;2023-05-02T13:26:30;100005.53;;;23.73;34.32
68301;BME280;55146;47.468;18.806;2023-05-02T13:28:56;100009.75;;;23.83;34.93